Time;durP1;ratioP1;P1;durP2;ratioP2;P2;SDS_P1;SDS_P2;PMS_P1;PMS_P2;Temp;Humidity;BMP_temperature;BMP_pressure;BME280_temperature;BME280_humidity;BME280_pressure;Samples;Min_cycle;Max_cycle;Signal;HPM_P1;HPM_P2
2021/08/08 00:00:11;;;;;;;4.40;3.20;;;20.40;99.90;;;;;;5072123;28;20517;-52
2021/08/08 00:02:42;;;;;;;4.00;3.70;;;20.40;99.90;;;;;;5053903;28;20827;-52
2021/08/08 00:05:12;;;;;;;5.57;3.47;;;20.30;99.90;;;;;;5072247;28;20433;-51
2021/08/08 00:07:40;;;;;;;4.10;3.20;;;20.30;99.90;;;;;;5054356;28;20989;-51
2021/08/08 00:10:10;;;;;;;3.87;3.43;;;20.40;99.90;;;;;;5072168;28;20443;-52
2021/08/08 00:12:38;;;;;;;4.07;3.50;;;20.30;99.90;;;;;;5072114;28;20427;-51
2021/08/08 00:15:06;;;;;;;5.03;3.17;;;20.30;99.90;;;;;;5072084;28;20931;-51
2021/08/08 00:17:33;;;;;;;3.30;3.00;;;20.20;99.90;;;;;;5070997;28;20476;-51
2021/08/08 00:20:00;;;;;;;3.40;3.10;;;20.20;99.90;;;;;;5071709;28;20429;-50
2021/08/08 00:22:27;;;;;;;3.43;3.03;;;20.20;99.90;;;;;;5072125;28;20436;-51
2021/08/08 00:24:53;;;;;;;3.67;3.33;;;20.20;99.90;;;;;;5072080;28;20434;-51
2021/08/08 00:27:20;;;;;;;4.83;3.77;;;20.20;99.90;;;;;;5072255;28;20438;-50
2021/08/08 00:29:48;;;;;;;4.93;3.67;;;20.20;99.90;;;;;;5071536;28;20537;-51
2021/08/08 00:32:15;;;;;;;5.10;3.30;;;20.20;99.90;;;;;;5071800;28;20439;-51
2021/08/08 00:34:43;;;;;;;3.20;2.90;;;20.20;99.90;;;;;;5053524;28;20476;-51
2021/08/08 00:37:10;;;;;;;3.43;2.80;;;20.20;99.90;;;;;;5053852;28;20453;-51
2021/08/08 00:39:37;;;;;;;5.40;3.80;;;20.10;99.90;;;;;;5053652;28;20457;-52
2021/08/08 00:42:04;;;;;;;3.43;3.13;;;20.20;99.90;;;;;;5055664;28;20504;-51
2021/08/08 00:44:31;;;;;;;4.70;2.93;;;20.10;99.90;;;;;;5054490;28;20470;-51
2021/08/08 00:46:59;;;;;;;3.63;3.30;;;20.20;99.90;;;;;;5053550;28;20465;-51
2021/08/08 00:49:28;;;;;;;4.10;3.53;;;20.10;99.90;;;;;;5053430;28;20481;-51
2021/08/08 00:51:55;;;;;;;4.03;3.07;;;20.10;99.90;;;;;;5053847;28;20454;-51
2021/08/08 00:54:26;;;;;;;3.23;2.90;;;20.00;99.90;;;;;;5053772;28;20558;-51
2021/08/08 00:56:53;;;;;;;3.40;2.90;;;20.00;99.90;;;;;;5053899;28;20485;-51
2021/08/08 00:59:22;;;;;;;4.10;3.40;;;20.00;99.90;;;;;;5053390;28;20480;-51
2021/08/08 01:01:51;;;;;;;4.33;3.37;;;19.90;99.90;;;;;;5053608;28;20456;-51
2021/08/08 01:04:23;;;;;;;4.30;3.80;;;19.90;99.90;;;;;;5053313;28;20500;-51
2021/08/08 01:07:00;;;;;;;5.33;4.17;;;19.90;99.90;;;;;;5053713;28;20503;-51
2021/08/08 01:09:34;;;;;;;4.80;3.47;;;19.80;99.90;;;;;;5053309;28;20528;-51
2021/08/08 01:12:02;;;;;;;5.00;3.50;;;19.80;99.90;;;;;;5053533;28;20453;-51
2021/08/08 01:14:30;;;;;;;6.43;3.33;;;19.80;99.90;;;;;;5053318;28;20977;-51
2021/08/08 01:17:04;;;;;;;3.60;3.10;;;19.80;99.90;;;;;;5053469;28;20887;-51
2021/08/08 01:19:36;;;;;;;4.70;2.97;;;19.70;99.90;;;;;;5053118;28;20519;-51
2021/08/08 01:22:06;;;;;;;5.03;3.73;;;19.70;99.90;;;;;;5053608;28;20441;-51
2021/08/08 01:24:34;;;;;;;4.40;3.37;;;19.70;99.90;;;;;;5071331;28;20870;-51
2021/08/08 01:27:03;;;;;;;4.50;3.53;;;19.60;99.90;;;;;;5053421;28;20495;-51
2021/08/08 01:29:33;;;;;;;4.07;3.50;;;19.60;99.90;;;;;;5055230;28;20552;-51
2021/08/08 01:32:00;;;;;;;3.17;2.87;;;19.60;99.90;;;;;;5075385;28;20528;-51
2021/08/08 01:34:34;;;;;;;4.83;3.53;;;19.50;99.90;;;;;;5057255;28;20471;-51
2021/08/08 01:37:04;;;;;;;4.57;3.70;;;19.50;99.90;;;;;;5057238;28;20551;-51
2021/08/08 01:39:35;;;;;;;3.97;3.00;;;19.50;99.90;;;;;;5056859;28;20503;-51
2021/08/08 01:42:08;;;;;;;5.07;3.30;;;19.40;99.90;;;;;;5057164;28;20535;-52
2021/08/08 01:44:43;;;;;;;3.50;3.00;;;19.40;99.90;;;;;;5057183;28;20565;-52
2021/08/08 01:47:14;;;;;;;3.60;3.30;;;19.40;99.90;;;;;;5056880;28;21071;-51
2021/08/08 01:49:44;;;;;;;4.10;3.00;;;19.30;99.90;;;;;;5056610;28;20824;-51
2021/08/08 01:52:12;;;;;;;3.77;2.97;;;19.30;99.90;;;;;;5056991;28;20966;-51
2021/08/08 01:54:48;;;;;;;3.07;2.80;;;19.30;99.90;;;;;;5056885;28;20551;-52
2021/08/08 01:57:21;;;;;;;3.33;3.03;;;19.30;99.90;;;;;;5058930;28;20443;-51
2021/08/08 01:59:53;;;;;;;3.93;2.97;;;19.20;99.90;;;;;;5056258;28;20451;-51
2021/08/08 02:02:20;;;;;;;4.90;4.00;;;19.20;99.90;;;;;;5056554;28;20449;-51
2021/08/08 02:04:55;;;;;;;3.27;2.93;;;19.20;99.90;;;;;;5056896;28;20460;-51
2021/08/08 02:07:22;;;;;;;3.90;2.90;;;19.20;99.90;;;;;;5074773;28;20496;-51
2021/08/08 02:09:54;;;;;;;3.10;2.80;;;19.20;99.90;;;;;;5056360;28;20455;-51
2021/08/08 02:12:24;;;;;;;3.83;3.10;;;19.20;99.90;;;;;;5056924;28;20483;-51
2021/08/08 02:14:51;;;;;;;3.90;3.07;;;19.20;99.90;;;;;;5056593;28;20488;-51
2021/08/08 02:17:25;;;;;;;5.00;3.30;;;19.10;99.90;;;;;;5056488;28;20448;-52
2021/08/08 02:19:52;;;;;;;3.80;3.20;;;19.10;99.90;;;;;;5056073;28;20491;-51
2021/08/08 02:22:21;;;;;;;3.43;3.10;;;19.10;99.90;;;;;;5056662;28;20462;-51
2021/08/08 02:24:50;;;;;;;7.90;3.40;;;19.10;99.90;;;;;;5056317;28;20501;-51
2021/08/08 02:27:22;;;;;;;6.00;3.33;;;19.10;99.90;;;;;;5056297;28;20459;-51
2021/08/08 02:29:59;;;;;;;3.77;3.33;;;19.10;99.90;;;;;;5056180;28;20779;-52
2021/08/08 02:32:26;;;;;;;3.57;2.60;;;19.00;99.90;;;;;;5056072;28;20460;-52
2021/08/08 02:34:53;;;;;;;4.77;3.47;;;18.90;99.90;;;;;;5056131;28;20480;-52
2021/08/08 02:37:20;;;;;;;5.33;3.20;;;18.90;99.90;;;;;;5055831;28;20449;-52
2021/08/08 02:39:50;;;;;;;3.03;2.80;;;18.90;99.90;;;;;;5053884;28;20943;-52
2021/08/08 02:42:17;;;;;;;3.63;2.80;;;18.90;99.90;;;;;;5073182;28;20966;-52
2021/08/08 02:44:45;;;;;;;5.27;3.50;;;18.90;99.90;;;;;;5056224;28;20486;-52
2021/08/08 02:47:12;;;;;;;7.23;3.10;;;18.90;99.90;;;;;;5056035;28;20454;-52
2021/08/08 02:49:39;;;;;;;6.30;3.40;;;18.90;99.90;;;;;;5055647;28;20451;-52
2021/08/08 02:52:06;;;;;;;3.50;3.20;;;18.90;99.90;;;;;;5055098;28;20539;-51
2021/08/08 02:54:34;;;;;;;4.27;3.57;;;18.90;99.90;;;;;;5055672;28;20506;-51
2021/08/08 02:57:01;;;;;;;7.73;3.30;;;18.90;99.90;;;;;;5056041;28;20994;-51
2021/08/08 02:59:28;;;;;;;4.77;3.03;;;18.90;99.90;;;;;;5055299;28;20534;-51
2021/08/08 03:01:58;;;;;;;7.50;3.07;;;18.90;99.90;;;;;;5056071;28;20453;-51
2021/08/08 03:04:24;;;;;;;4.40;3.10;;;18.90;99.90;;;;;;5073800;28;20471;-51
2021/08/08 03:06:52;;;;;;;4.00;3.03;;;19.00;99.90;;;;;;5055753;28;20452;-51
2021/08/08 03:09:21;;;;;;;3.40;3.10;;;19.00;99.90;;;;;;5055633;28;20457;-51
2021/08/08 03:11:48;;;;;;;6.13;3.70;;;18.90;99.90;;;;;;5056639;28;20449;-51
2021/08/08 03:14:19;;;;;;;3.03;2.70;;;19.00;99.90;;;;;;5055888;28;20484;-51
2021/08/08 03:16:47;;;;;;;5.60;3.17;;;19.00;99.90;;;;;;5055086;28;20446;-51
2021/08/08 03:19:17;;;;;;;4.07;3.50;;;19.00;99.90;;;;;;5055016;28;20492;-51
2021/08/08 03:21:45;;;;;;;6.50;3.97;;;19.00;99.90;;;;;;5055481;28;20491;-51
2021/08/08 03:24:12;;;;;;;5.40;3.20;;;19.00;99.90;;;;;;5055237;28;20460;-51
2021/08/08 03:26:39;;;;;;;3.43;3.10;;;19.00;99.90;;;;;;5055133;28;20949;-51
2021/08/08 03:29:10;;;;;;;3.57;3.17;;;19.00;99.90;;;;;;5054842;28;20953;-51
2021/08/08 03:31:37;;;;;;;3.60;3.30;;;19.00;99.90;;;;;;5054776;28;20514;-51
2021/08/08 03:34:04;;;;;;;6.43;3.40;;;19.10;99.90;;;;;;5054875;28;20851;-51
2021/08/08 03:36:32;;;;;;;3.37;3.00;;;19.10;99.90;;;;;;5073200;28;20530;-51
2021/08/08 03:38:59;;;;;;;5.53;3.30;;;19.10;99.90;;;;;;5054760;28;20483;-51
2021/08/08 03:41:26;;;;;;;4.07;3.10;;;19.10;99.90;;;;;;5055009;28;20445;-52
2021/08/08 03:43:52;;;;;;;5.17;3.13;;;19.10;99.90;;;;;;5054774;28;20541;-51
2021/08/08 03:46:19;;;;;;;4.40;3.10;;;19.10;99.90;;;;;;5054622;28;20449;-51
2021/08/08 03:48:46;;;;;;;7.43;3.50;;;19.10;99.90;;;;;;5072379;28;20429;-51
2021/08/08 03:51:13;;;;;;;4.60;3.00;;;19.10;99.90;;;;;;5054654;28;20444;-51
2021/08/08 03:53:41;;;;;;;3.47;2.73;;;19.00;99.90;;;;;;5054573;28;21004;-51
2021/08/08 03:56:08;;;;;;;4.73;3.20;;;19.10;99.90;;;;;;5054602;28;20484;-51
2021/08/08 03:58:35;;;;;;;3.33;3.03;;;19.10;99.90;;;;;;5054134;28;20482;-51
2021/08/08 04:01:04;;;;;;;4.10;3.30;;;19.10;99.90;;;;;;5054514;28;20448;-50
2021/08/08 04:03:34;;;;;;;3.93;3.13;;;19.10;99.90;;;;;;5054334;28;20537;-51
2021/08/08 04:06:01;;;;;;;5.33;2.97;;;19.00;99.90;;;;;;5054411;28;20436;-51
2021/08/08 04:08:27;;;;;;;5.47;3.90;;;19.00;99.90;;;;;;5072167;28;20948;-51
2021/08/08 04:10:57;;;;;;;3.30;2.97;;;19.00;99.90;;;;;;5054272;28;20539;-52
2021/08/08 04:13:26;;;;;;;3.57;3.10;;;19.00;99.90;;;;;;5072053;28;20457;-51
2021/08/08 04:15:53;;;;;;;4.30;3.77;;;18.90;99.90;;;;;;5054074;28;20448;-51
2021/08/08 04:18:20;;;;;;;8.90;3.27;;;18.90;99.90;;;;;;5054000;28;20460;-51
2021/08/08 04:20:46;;;;;;;5.57;3.60;;;18.90;99.90;;;;;;5072301;28;20953;-51
2021/08/08 04:23:13;;;;;;;6.30;2.70;;;18.90;99.90;;;;;;5054390;28;20567;-51
2021/08/08 04:25:41;;;;;;;4.63;2.97;;;18.80;99.90;;;;;;5055604;28;20448;-51
2021/08/08 04:28:11;;;;;;;4.10;2.67;;;18.80;99.90;;;;;;5054146;28;20460;-51
2021/08/08 04:30:41;;;;;;;4.03;2.47;;;18.90;99.90;;;;;;5053935;28;20453;-51
2021/08/08 04:33:08;;;;;;;2.80;2.60;;;18.90;99.90;;;;;;5072542;28;20452;-52
2021/08/08 04:35:37;;;;;;;6.07;2.90;;;18.90;99.90;;;;;;5054207;28;20533;-52
2021/08/08 04:38:04;;;;;;;3.53;2.67;;;19.00;99.90;;;;;;5071872;28;20462;-52
2021/08/08 04:40:32;;;;;;;3.40;2.53;;;19.10;99.90;;;;;;5054141;28;20487;-51
2021/08/08 04:42:59;;;;;;;5.30;2.57;;;19.10;99.90;;;;;;5053936;28;20473;-51
2021/08/08 04:45:27;;;;;;;5.33;3.00;;;19.30;99.90;;;;;;5053759;28;20479;-51
2021/08/08 04:47:54;;;;;;;5.13;2.77;;;19.40;99.90;;;;;;5053955;28;20449;-51
2021/08/08 04:50:23;;;;;;;5.53;2.73;;;19.50;99.90;;;;;;5053517;28;20445;-51
2021/08/08 04:52:50;;;;;;;3.10;2.60;;;19.50;99.90;;;;;;5071566;28;20460;-51
2021/08/08 04:55:17;;;;;;;4.70;2.67;;;19.50;99.90;;;;;;5053724;28;20453;-51
2021/08/08 04:57:44;;;;;;;3.07;2.77;;;19.50;99.90;;;;;;5053579;28;21048;-51
2021/08/08 05:00:17;;;;;;;2.80;2.50;;;19.60;99.90;;;;;;5053106;28;20483;-50
2021/08/08 05:02:46;;;;;;;3.20;2.80;;;19.60;99.90;;;;;;5071311;28;20531;-51
2021/08/08 05:05:14;;;;;;;3.10;2.40;;;19.70;99.90;;;;;;5057642;22;20494;-54
2021/08/08 05:07:42;;;;;;;6.23;2.90;;;19.80;99.90;;;;;;5049597;28;20450;-54
2021/08/08 05:10:12;;;;;;;2.77;2.47;;;19.80;99.90;;;;;;5047923;28;20965;-54
2021/08/08 05:12:39;;;;;;;3.50;2.20;;;19.70;99.90;;;;;;5031486;28;20546;-54
2021/08/08 05:15:08;;;;;;;3.30;2.40;;;19.70;99.90;;;;;;5031627;28;20500;-54
2021/08/08 05:17:35;;;;;;;3.50;2.50;;;19.70;99.90;;;;;;5031696;28;20853;-54
2021/08/08 05:20:05;;;;;;;3.83;2.30;;;19.80;99.90;;;;;;5031207;28;20473;-54
2021/08/08 05:22:31;;;;;;;2.87;2.20;;;19.80;99.90;;;;;;5049739;28;20887;-54
2021/08/08 05:24:58;;;;;;;4.93;2.67;;;19.90;99.90;;;;;;5031646;28;20485;-54
2021/08/08 05:27:25;;;;;;;4.13;2.03;;;20.00;99.90;;;;;;5031527;28;20448;-54
2021/08/08 05:29:51;;;;;;;3.50;2.37;;;20.10;99.90;;;;;;5031315;28;20447;-54
2021/08/08 05:32:18;;;;;;;5.60;1.90;;;20.10;99.90;;;;;;5031557;28;20522;-54
2021/08/08 05:34:46;;;;;;;3.70;2.20;;;20.20;99.90;;;;;;5049279;28;20837;-54
2021/08/08 05:37:14;;;;;;;4.90;1.97;;;20.20;99.90;;;;;;5031501;28;20511;-54
2021/08/08 05:39:41;;;;;;;4.07;1.90;;;20.20;99.90;;;;;;5031045;28;20580;-54
2021/08/08 05:42:08;;;;;;;2.67;1.90;;;20.20;99.90;;;;;;5031510;28;20449;-54
2021/08/08 05:44:37;;;;;;;2.47;2.07;;;20.30;99.90;;;;;;5031367;28;21022;-54
2021/08/08 05:47:05;;;;;;;2.27;1.50;;;20.20;99.90;;;;;;5031518;28;20538;-55
2021/08/08 05:49:33;;;;;;;3.97;2.10;;;20.20;99.90;;;;;;5031223;28;20454;-54
2021/08/08 05:52:01;;;;;;;2.07;1.70;;;20.20;99.90;;;;;;5031341;28;20955;-54
2021/08/08 05:54:29;;;;;;;3.00;1.47;;;20.20;99.90;;;;;;5031121;28;20588;-55
2021/08/08 05:56:56;;;;;;;4.43;1.80;;;20.20;99.90;;;;;;5031198;28;20462;-55
2021/08/08 05:59:24;;;;;;;4.07;1.73;;;20.40;99.90;;;;;;5030995;28;20475;-55
2021/08/08 06:01:51;;;;;;;4.60;1.70;;;20.50;99.90;;;;;;5049328;28;20426;-54
2021/08/08 06:04:18;;;;;;;5.30;1.87;;;20.60;99.90;;;;;;5047549;28;20513;-55
2021/08/08 06:06:45;;;;;;;4.17;1.70;;;20.70;99.90;;;;;;5031303;28;20495;-55
2021/08/08 06:09:12;;;;;;;8.13;2.00;;;20.80;99.90;;;;;;5030596;28;20633;-54
2021/08/08 06:11:41;;;;;;;2.60;1.43;;;20.90;99.90;;;;;;5030825;28;20450;-54
2021/08/08 06:14:08;;;;;;;2.07;1.40;;;20.90;99.90;;;;;;5048989;28;20543;-54
2021/08/08 06:16:35;;;;;;;2.53;1.83;;;21.00;99.90;;;;;;5032906;28;20489;-55
2021/08/08 06:19:01;;;;;;;2.83;1.90;;;21.00;99.90;;;;;;5051915;28;20777;-55
2021/08/08 06:21:28;;;;;;;3.63;1.60;;;20.90;99.90;;;;;;5034596;28;20450;-55
2021/08/08 06:23:57;;;;;;;5.80;1.70;;;21.10;99.90;;;;;;5034291;28;21015;-55
2021/08/08 06:26:24;;;;;;;3.47;1.57;;;21.10;99.90;;;;;;5034364;28;20462;-55
2021/08/08 06:28:54;;;;;;;3.87;3.57;;;21.20;99.90;;;;;;5051860;28;20869;-55
2021/08/08 06:31:21;;;;;;;2.63;2.00;;;21.30;99.90;;;;;;5034276;28;20453;-54
2021/08/08 06:33:48;;;;;;;2.03;1.60;;;21.30;99.90;;;;;;5034523;28;21164;-55
2021/08/08 06:36:15;;;;;;;2.40;1.40;;;21.30;99.90;;;;;;5052384;28;20470;-56
2021/08/08 06:38:41;;;;;;;2.57;1.40;;;21.30;99.90;;;;;;5034009;28;20455;-55
2021/08/08 06:41:08;;;;;;;4.13;1.63;;;21.30;99.90;;;;;;5034217;28;20476;-55
2021/08/08 06:43:35;;;;;;;2.30;1.83;;;21.40;99.90;;;;;;5052283;28;20478;-55
2021/08/08 06:46:03;;;;;;;4.97;1.67;;;21.40;99.90;;;;;;5033937;28;20563;-55
2021/08/08 06:48:34;;;;;;;2.03;1.67;;;21.50;99.90;;;;;;5033599;28;20454;-55
2021/08/08 06:51:01;;;;;;;2.40;1.53;;;21.40;99.90;;;;;;5034024;28;20943;-55
2021/08/08 06:53:28;;;;;;;3.53;1.93;;;21.40;99.90;;;;;;5050459;28;20469;-55
2021/08/08 06:55:54;;;;;;;2.17;1.70;;;21.40;99.90;;;;;;5033689;28;20456;-55
2021/08/08 06:58:21;;;;;;;3.00;1.70;;;21.50;99.90;;;;;;5033324;28;20503;-55
2021/08/08 07:00:48;;;;;;;5.17;1.60;;;21.50;99.90;;;;;;5033978;28;20552;-54
2021/08/08 07:03:17;;;;;;;4.20;1.70;;;21.50;99.90;;;;;;5033761;28;20543;-54
2021/08/08 07:05:43;;;;;;;3.83;1.60;;;21.50;99.90;;;;;;5051759;28;20818;-55
2021/08/08 07:08:11;;;;;;;1.70;1.47;;;21.50;99.90;;;;;;5033454;28;20452;-55
2021/08/08 07:10:38;;;;;;;4.53;2.17;;;21.50;99.90;;;;;;5033828;28;20448;-55
2021/08/08 07:13:05;;;;;;;4.33;1.50;;;21.60;99.90;;;;;;5033592;28;20520;-55
2021/08/08 07:15:32;;;;;;;2.70;1.40;;;21.60;99.90;;;;;;5033670;28;20456;-55
2021/08/08 07:17:59;;;;;;;2.60;1.17;;;21.60;99.90;;;;;;5051470;28;20461;-55
2021/08/08 07:20:27;;;;;;;2.57;1.40;;;21.70;99.90;;;;;;5033275;28;20476;-55
2021/08/08 07:22:54;;;;;;;3.67;1.83;;;21.70;99.90;;;;;;5033208;28;20450;-55
2021/08/08 07:25:21;;;;;;;1.90;1.30;;;21.70;99.90;;;;;;5033114;28;20509;-55
2021/08/08 07:27:47;;;;;;;3.27;1.60;;;21.40;99.90;;;;;;5051034;28;20440;-55
2021/08/08 07:30:14;;;;;;;3.60;1.50;;;21.80;99.90;;;;;;5032834;28;20446;-55
2021/08/08 07:32:41;;;;;;;3.83;1.73;;;21.90;99.90;;;;;;5032375;28;20976;-54
2021/08/08 07:35:09;;;;;;;1.63;1.03;;;21.90;99.90;;;;;;5032661;28;20492;-55
2021/08/08 07:37:37;;;;;;;3.40;1.40;;;21.90;99.90;;;;;;5032903;28;20989;-55
2021/08/08 07:40:05;;;;;;;5.53;1.70;;;22.00;99.90;;;;;;5032470;28;20488;-55
2021/08/08 07:42:33;;;;;;;5.00;1.37;;;22.00;99.90;;;;;;5032455;28;20473;-55
2021/08/08 07:44:59;;;;;;;4.43;1.90;;;22.10;99.90;;;;;;5032616;28;20478;-55
2021/08/08 07:47:26;;;;;;;1.70;1.30;;;22.20;99.90;;;;;;5050807;28;20473;-55
2021/08/08 07:49:53;;;;;;;3.63;1.20;;;22.40;99.90;;;;;;5032304;28;21037;-55
2021/08/08 07:52:19;;;;;;;2.30;1.27;;;22.50;99.90;;;;;;5032689;28;20448;-55
2021/08/08 07:54:48;;;;;;;1.63;1.10;;;22.60;99.90;;;;;;5032811;28;20488;-55
2021/08/08 07:57:15;;;;;;;3.10;1.43;;;22.70;99.90;;;;;;5032727;28;20458;-55
2021/08/08 07:59:41;;;;;;;2.70;1.70;;;22.80;99.50;;;;;;5050581;28;20475;-55
2021/08/08 08:02:08;;;;;;;2.73;1.30;;;22.80;99.30;;;;;;5050654;28;20435;-55
2021/08/08 08:04:35;;;;;;;2.60;1.13;;;22.80;98.80;;;;;;5032364;28;20555;-54
2021/08/08 08:07:01;;;;;;;2.33;1.13;;;22.90;98.60;;;;;;5033089;28;20798;-54
2021/08/08 08:09:28;;;;;;;2.93;1.63;;;22.80;98.10;;;;;;5032036;28;20458;-54
2021/08/08 08:11:56;;;;;;;2.23;1.10;;;22.80;98.00;;;;;;5032186;28;20537;-54
2021/08/08 08:14:22;;;;;;;1.40;0.90;;;22.80;97.80;;;;;;5032418;28;21014;-54
2021/08/08 08:16:49;;;;;;;2.23;1.00;;;22.90;97.80;;;;;;5032254;28;20446;-54
2021/08/08 08:19:16;;;;;;;4.20;1.30;;;22.90;97.50;;;;;;5031511;28;20990;-55
2021/08/08 08:21:44;;;;;;;2.30;1.00;;;22.90;97.40;;;;;;5032303;28;20487;-54
2021/08/08 08:24:11;;;;;;;5.33;1.30;;;23.00;97.20;;;;;;5032011;28;20550;-54
2021/08/08 08:26:37;;;;;;;2.47;1.20;;;23.00;96.50;;;;;;5049708;28;20461;-56
2021/08/08 08:29:06;;;;;;;2.00;1.07;;;22.90;95.70;;;;;;5031759;28;20451;-54
2021/08/08 08:31:33;;;;;;;1.20;0.90;;;22.90;95.70;;;;;;5048363;28;20440;-54
2021/08/08 08:33:59;;;;;;;2.23;1.17;;;23.00;95.60;;;;;;5049942;28;20453;-54
2021/08/08 08:36:26;;;;;;;1.87;1.37;;;23.10;95.40;;;;;;5031991;28;20456;-54
2021/08/08 08:38:53;;;;;;;1.87;1.20;;;23.20;95.30;;;;;;5030306;28;20456;-54
2021/08/08 08:41:26;;;;;;;1.60;1.20;;;23.20;95.00;;;;;;5049662;28;20471;-54
2021/08/08 08:43:53;;;;;;;1.80;1.33;;;23.30;94.80;;;;;;5049902;28;20451;-54
2021/08/08 08:46:23;;;;;;;2.30;1.20;;;23.30;94.60;;;;;;5048086;28;20454;-54
2021/08/08 08:48:52;;;;;;;1.20;0.90;;;23.30;94.40;;;;;;5031317;28;20508;-54
2021/08/08 08:51:21;;;;;;;5.10;1.20;;;23.20;94.40;;;;;;5031778;28;20452;-54
2021/08/08 08:53:48;;;;;;;3.43;1.20;;;23.20;94.10;;;;;;5031452;28;20971;-54
2021/08/08 08:56:15;;;;;;;2.87;1.40;;;23.30;94.10;;;;;;5031832;28;20551;-54
2021/08/08 08:58:42;;;;;;;1.60;1.33;;;23.40;93.90;;;;;;5048912;28;20493;-55
2021/08/08 09:01:08;;;;;;;1.60;1.03;;;23.60;93.90;;;;;;5031431;28;20488;-55
2021/08/08 09:03:36;;;;;;;4.90;2.13;;;23.70;93.70;;;;;;5031247;28;20504;-54
2021/08/08 09:06:03;;;;;;;5.53;1.50;;;23.80;93.60;;;;;;5031067;28;20758;-55
2021/08/08 09:08:30;;;;;;;1.83;1.30;;;23.80;93.60;;;;;;5049001;28;20493;-55
2021/08/08 09:11:02;;;;;;;1.83;1.40;;;23.90;93.50;;;;;;5031955;28;20956;-55
2021/08/08 09:13:31;;;;;;;2.07;1.17;;;24.00;93.30;;;;;;5031209;28;20511;-55
2021/08/08 09:15:58;;;;;;;4.27;1.03;;;24.10;93.20;;;;;;5049252;28;20468;-55
2021/08/08 09:18:24;;;;;;;2.90;1.33;;;24.10;93.00;;;;;;5049142;28;20433;-55
2021/08/08 09:21:09;;;;;;;2.53;1.10;;;24.10;92.90;;;;;;5031718;28;20480;-55
2021/08/08 09:23:37;;;;;;;3.17;1.80;;;24.10;92.50;;;;;;5048069;28;20491;-55
2021/08/08 09:26:05;;;;;;;4.37;1.53;;;24.00;92.80;;;;;;5031173;28;20469;-55
2021/08/08 09:28:35;;;;;;;1.60;1.47;;;24.10;93.20;;;;;;5031485;28;20456;-55
2021/08/08 09:31:02;;;;;;;1.93;1.20;;;24.10;92.50;;;;;;5031257;28;20526;-55
2021/08/08 09:33:41;;;;;;;4.03;1.47;;;24.30;92.40;;;;;;5030926;28;20563;-55
2021/08/08 09:36:09;;;;;;;1.87;1.23;;;24.40;91.60;;;;;;5049481;28;20529;-55
2021/08/08 09:38:44;;;;;;;2.47;1.30;;;24.40;91.80;;;;;;5048113;28;20450;-55
2021/08/08 09:41:11;;;;;;;2.80;1.37;;;24.40;91.90;;;;;;5048687;28;20481;-55
2021/08/08 09:43:37;;;;;;;3.90;1.80;;;24.40;91.90;;;;;;5049015;28;20472;-55
2021/08/08 09:46:04;;;;;;;1.60;1.10;;;24.50;91.50;;;;;;5031105;28;20454;-55
2021/08/08 09:48:38;;;;;;;2.00;1.10;;;24.50;91.50;;;;;;5048965;28;20909;-55
2021/08/08 09:51:06;;;;;;;4.17;1.60;;;24.60;91.40;;;;;;5052273;28;20557;-55
2021/08/08 09:53:34;;;;;;;2.43;1.80;;;24.70;91.50;;;;;;5052802;28;20558;-55
2021/08/08 09:56:02;;;;;;;2.30;1.40;;;24.80;90.80;;;;;;5052939;28;20951;-55
2021/08/08 09:58:37;;;;;;;2.50;1.07;;;24.90;90.00;;;;;;5052617;28;20532;-55
2021/08/08 10:01:04;;;;;;;4.03;1.20;;;24.90;89.40;;;;;;5052869;28;20469;-55
2021/08/08 10:03:31;;;;;;;2.20;0.93;;;25.00;89.10;;;;;;5052758;28;20478;-55
2021/08/08 10:05:58;;;;;;;5.30;1.30;;;25.00;89.10;;;;;;5052991;28;20433;-55
2021/08/08 10:08:26;;;;;;;3.27;1.53;;;24.90;88.40;;;;;;5052503;28;20436;-55
2021/08/08 10:10:54;;;;;;;2.60;1.20;;;24.70;87.50;;;;;;5052872;28;20462;-55
2021/08/08 10:13:38;;;;;;;2.07;1.13;;;24.70;88.10;;;;;;5052533;28;20453;-55
2021/08/08 10:16:09;;;;;;;3.60;1.57;;;24.60;88.00;;;;;;5052854;28;20789;-55
2021/08/08 10:18:39;;;;;;;3.13;1.30;;;24.60;88.20;;;;;;5052497;28;20437;-55
2021/08/08 10:21:07;;;;;;;3.07;1.40;;;24.60;88.20;;;;;;5052524;28;20466;-56
2021/08/08 10:23:36;;;;;;;6.97;1.47;;;24.60;87.50;;;;;;5052873;28;20453;-55
2021/08/08 10:26:05;;;;;;;2.93;1.70;;;24.60;87.20;;;;;;5052989;28;20447;-55
2021/08/08 10:28:32;;;;;;;3.73;1.30;;;24.70;87.30;;;;;;5051654;28;20513;-56
2021/08/08 10:31:00;;;;;;;2.17;1.20;;;24.90;87.80;;;;;;5052632;28;20449;-55
2021/08/08 10:33:27;;;;;;;1.40;1.20;;;25.10;87.40;;;;;;5052146;28;20458;-56
2021/08/08 10:35:54;;;;;;;2.10;1.37;;;25.30;86.70;;;;;;5052379;28;20803;-56
2021/08/08 10:38:21;;;;;;;3.63;2.20;;;25.40;86.70;;;;;;5051940;28;20480;-56
2021/08/08 10:40:49;;;;;;;2.00;1.30;;;25.40;86.20;;;;;;5034096;28;20485;-55
2021/08/08 10:43:27;;;;;;;1.87;1.27;;;25.40;85.20;;;;;;5052327;28;20516;-56
2021/08/08 10:46:04;;;;;;;1.57;1.20;;;25.30;84.10;;;;;;5051113;28;20450;-56
2021/08/08 10:48:35;;;;;;;1.90;1.40;;;25.20;84.30;;;;;;5051318;28;20845;-55
2021/08/08 10:51:03;;;;;;;1.87;1.30;;;25.20;83.80;;;;;;5033807;28;20524;-55
2021/08/08 10:53:31;;;;;;;4.67;2.83;;;25.10;83.80;;;;;;5051878;28;20541;-55
2021/08/08 10:56:06;;;;;;;2.17;1.50;;;25.10;83.90;;;;;;5052002;28;20439;-56
2021/08/08 10:58:35;;;;;;;5.03;1.20;;;25.10;84.00;;;;;;5051550;28;20430;-55
2021/08/08 11:01:02;;;;;;;2.50;1.37;;;25.10;84.00;;;;;;5051186;28;20478;-55
2021/08/08 11:05:59;;;;;;;2.80;1.77;;;25.00;83.10;;;;;;5051389;28;20864;-51
2021/08/08 11:08:26;;;;;;;3.80;1.70;;;25.00;82.90;;;;;;5052549;28;20485;-51
2021/08/08 11:10:53;;;;;;;2.30;1.80;;;25.00;81.20;;;;;;5035391;28;20530;-52
2021/08/08 11:13:24;;;;;;;5.57;1.33;;;25.00;80.00;;;;;;5053444;28;20439;-52
2021/08/08 11:15:53;;;;;;;2.60;1.47;;;25.00;79.70;;;;;;5033438;28;20442;-52
2021/08/08 11:18:29;;;;;;;4.17;1.27;;;25.00;79.50;;;;;;5032685;28;20435;-51
2021/08/08 11:20:56;;;;;;;2.10;1.20;;;25.10;78.90;;;;;;5032204;28;20507;-53
2021/08/08 11:23:28;;;;;;;2.10;1.27;;;25.10;79.10;;;;;;5033082;28;20439;-52
2021/08/08 11:25:54;;;;;;;2.13;1.40;;;25.10;79.30;;;;;;5033446;28;20497;-52
2021/08/08 11:28:21;;;;;;;3.13;1.93;;;25.10;79.40;;;;;;5032093;28;20443;-53
2021/08/08 11:30:48;;;;;;;1.90;1.20;;;25.10;79.20;;;;;;5032613;28;20440;-53
2021/08/08 11:33:16;;;;;;;2.67;1.40;;;25.20;79.40;;;;;;5032007;28;20446;-52
2021/08/08 11:35:45;;;;;;;1.70;1.17;;;25.30;79.50;;;;;;5032589;28;20451;-53
2021/08/08 11:38:17;;;;;;;3.20;1.47;;;25.40;79.60;;;;;;5032547;28;20940;-53
2021/08/08 11:40:45;;;;;;;4.77;1.30;;;25.50;78.80;;;;;;5014414;28;20455;-52
2021/08/08 11:43:13;;;;;;;3.37;1.20;;;25.50;78.30;;;;;;5032073;28;20538;-53
2021/08/08 11:45:41;;;;;;;2.10;1.67;;;25.70;78.90;;;;;;5032056;28;20510;-52
2021/08/08 11:48:09;;;;;;;3.57;1.90;;;25.80;78.60;;;;;;5031998;28;20420;-53
2021/08/08 11:50:38;;;;;;;2.67;1.30;;;25.90;78.10;;;;;;5032529;28;20438;-52
2021/08/08 11:53:07;;;;;;;3.00;1.60;;;25.90;77.20;;;;;;5032388;28;20431;-52
2021/08/08 11:55:34;;;;;;;3.07;1.67;;;25.90;75.80;;;;;;5014127;28;20471;-52
2021/08/08 11:58:05;;;;;;;2.40;1.23;;;26.00;74.80;;;;;;5031881;28;20530;-51
2021/08/08 12:00:33;;;;;;;2.63;1.70;;;26.10;73.50;;;;;;5032120;28;20449;-52
2021/08/08 12:03:00;;;;;;;1.83;1.23;;;26.10;72.60;;;;;;5014233;28;20453;-52
2021/08/08 12:05:28;;;;;;;5.77;1.23;;;25.90;71.00;;;;;;5032087;28;20470;-52
2021/08/08 12:07:56;;;;;;;4.07;1.30;;;25.80;71.80;;;;;;5031688;28;20447;-51
2021/08/08 12:10:27;;;;;;;2.13;1.57;;;25.80;72.90;;;;;;5013883;28;20457;-50
2021/08/08 12:12:54;;;;;;;3.30;1.63;;;25.80;73.40;;;;;;5032021;28;20484;-51
2021/08/08 12:15:32;;;;;;;2.20;1.53;;;25.90;74.00;;;;;;5032076;28;20458;-50
2021/08/08 12:17:59;;;;;;;2.83;1.20;;;25.90;73.80;;;;;;5031656;28;20825;-51
2021/08/08 12:20:32;;;;;;;2.57;1.57;;;25.80;73.10;;;;;;5031009;28;20518;-51
2021/08/08 12:23:09;;;;;;;6.40;2.07;;;25.80;71.90;;;;;;5031850;28;20831;-51
2021/08/08 12:25:36;;;;;;;3.20;1.30;;;25.80;72.20;;;;;;5031781;28;20501;-49
2021/08/08 12:28:04;;;;;;;3.30;1.90;;;25.80;72.10;;;;;;5031689;28;20822;-51
2021/08/08 12:30:31;;;;;;;2.90;2.00;;;25.80;72.00;;;;;;5031704;28;20459;-51
2021/08/08 12:33:06;;;;;;;3.60;1.73;;;25.80;72.00;;;;;;5031426;28;20439;-52
2021/08/08 12:35:38;;;;;;;4.00;1.40;;;25.80;71.00;;;;;;5031574;28;20550;-50
2021/08/08 12:38:12;;;;;;;1.80;1.60;;;25.70;70.00;;;;;;5030995;28;20943;-51
2021/08/08 12:40:45;;;;;;;2.57;1.60;;;25.70;70.20;;;;;;5031456;28;20436;-51
2021/08/08 12:43:16;;;;;;;2.97;1.67;;;25.70;70.10;;;;;;5031384;28;20440;-51
2021/08/08 12:45:43;;;;;;;3.07;1.60;;;25.70;69.00;;;;;;5031344;28;20462;-52
2021/08/08 12:48:10;;;;;;;2.83;1.47;;;25.80;68.50;;;;;;5029965;28;20924;-52
2021/08/08 12:50:41;;;;;;;3.50;1.50;;;25.90;67.70;;;;;;5031125;28;20846;-51
2021/08/08 12:53:09;;;;;;;4.53;1.40;;;26.00;67.10;;;;;;5031343;28;20939;-51
2021/08/08 12:55:37;;;;;;;2.30;1.33;;;26.10;66.80;;;;;;5031050;28;20953;-51